sensor_id;sensor_type;location;lat;lon;timestamp;temperature;humidity
23114;DHT22;11726;50.122;8.832;2024-02-26T00:01:54;6.50;99.90
23114;DHT22;11726;50.122;8.832;2024-02-26T00:04:21;6.40;99.90
23114;DHT22;11726;50.122;8.832;2024-02-26T00:06:48;6.50;99.90
23114;DHT22;11726;50.122;8.832;2024-02-26T00:09:17;6.50;99.90
23114;DHT22;11726;50.122;8.832;2024-02-26T00:11:44;6.50;99.90
23114;DHT22;11726;50.122;8.832;2024-02-26T00:14:11;6.50;99.90
23114;DHT22;11726;50.122;8.832;2024-02-26T00:16:40;6.60;99.90
23114;DHT22;11726;50.122;8.832;2024-02-26T00:19:07;6.60;99.90
23114;DHT22;11726;50.122;8.832;2024-02-26T00:21:39;6.40;99.90
23114;DHT22;11726;50.122;8.832;2024-02-26T00:24:06;6.50;99.90
23114;DHT22;11726;50.122;8.832;2024-02-26T00:26:32;6.50;99.90
23114;DHT22;11726;50.122;8.832;2024-02-26T00:28:59;6.40;99.90
23114;DHT22;11726;50.122;8.832;2024-02-26T00:31:26;6.40;99.90
23114;DHT22;11726;50.122;8.832;2024-02-26T00:33:52;6.40;99.90
23114;DHT22;11726;50.122;8.832;2024-02-26T00:36:19;6.50;99.90
23114;DHT22;11726;50.122;8.832;2024-02-26T00:38:46;6.50;99.90
23114;DHT22;11726;50.122;8.832;2024-02-26T00:41:18;6.50;99.90
23114;DHT22;11726;50.122;8.832;2024-02-26T00:43:45;6.60;99.90
23114;DHT22;11726;50.122;8.832;2024-02-26T00:46:12;6.50;99.90
23114;DHT22;11726;50.122;8.832;2024-02-26T00:48:39;6.50;99.90
23114;DHT22;11726;50.122;8.832;2024-02-26T00:51:05;6.60;99.90
23114;DHT22;11726;50.122;8.832;2024-02-26T00:53:32;6.40;99.90
23114;DHT22;11726;50.122;8.832;2024-02-26T00:55:59;6.40;99.90
23114;DHT22;11726;50.122;8.832;2024-02-26T00:58:26;6.50;99.90
23114;DHT22;11726;50.122;8.832;2024-02-26T01:00:53;6.60;99.90
23114;DHT22;11726;50.122;8.832;2024-02-26T01:03:20;6.60;99.90
23114;DHT22;11726;50.122;8.832;2024-02-26T01:05:46;6.70;99.90
23114;DHT22;11726;50.122;8.832;2024-02-26T01:08:13;6.70;99.90
23114;DHT22;11726;50.122;8.832;2024-02-26T01:10:40;6.70;99.90
23114;DHT22;11726;50.122;8.832;2024-02-26T01:13:07;6.70;99.90
23114;DHT22;11726;50.122;8.832;2024-02-26T01:15:34;6.80;99.90
23114;DHT22;11726;50.122;8.832;2024-02-26T01:18:00;6.80;99.90
23114;DHT22;11726;50.122;8.832;2024-02-26T01:20:28;6.80;99.90
23114;DHT22;11726;50.122;8.832;2024-02-26T01:22:54;6.80;99.90
23114;DHT22;11726;50.122;8.832;2024-02-26T01:25:21;6.80;99.90
23114;DHT22;11726;50.122;8.832;2024-02-26T01:27:48;6.80;99.90
23114;DHT22;11726;50.122;8.832;2024-02-26T01:30:14;6.80;99.90
23114;DHT22;11726;50.122;8.832;2024-02-26T01:32:43;6.90;99.90
23114;DHT22;11726;50.122;8.832;2024-02-26T01:35:10;7.00;99.90
23114;DHT22;11726;50.122;8.832;2024-02-26T01:37:38;7.10;99.90
23114;DHT22;11726;50.122;8.832;2024-02-26T01:40:06;7.10;99.90
23114;DHT22;11726;50.122;8.832;2024-02-26T01:42:33;7.10;99.90
23114;DHT22;11726;50.122;8.832;2024-02-26T01:45:00;7.10;99.90
23114;DHT22;11726;50.122;8.832;2024-02-26T01:47:27;7.00;99.90
23114;DHT22;11726;50.122;8.832;2024-02-26T01:49:55;7.10;99.90
23114;DHT22;11726;50.122;8.832;2024-02-26T01:52:22;7.00;99.90
23114;DHT22;11726;50.122;8.832;2024-02-26T01:54:49;6.90;99.90
23114;DHT22;11726;50.122;8.832;2024-02-26T01:57:16;7.00;99.90
23114;DHT22;11726;50.122;8.832;2024-02-26T01:59:43;7.00;99.90
23114;DHT22;11726;50.122;8.832;2024-02-26T02:02:12;7.10;99.90
23114;DHT22;11726;50.122;8.832;2024-02-26T02:04:39;7.10;99.90
23114;DHT22;11726;50.122;8.832;2024-02-26T02:07:06;7.10;99.90
23114;DHT22;11726;50.122;8.832;2024-02-26T02:09:33;7.00;99.90
23114;DHT22;11726;50.122;8.832;2024-02-26T02:12:00;7.00;99.90
23114;DHT22;11726;50.122;8.832;2024-02-26T02:14:27;7.00;99.90
23114;DHT22;11726;50.122;8.832;2024-02-26T02:16:53;7.00;99.90
23114;DHT22;11726;50.122;8.832;2024-02-26T02:19:20;7.00;99.90
23114;DHT22;11726;50.122;8.832;2024-02-26T02:21:47;7.10;99.90
23114;DHT22;11726;50.122;8.832;2024-02-26T02:24:13;7.10;99.90
23114;DHT22;11726;50.122;8.832;2024-02-26T02:26:40;7.10;99.90
23114;DHT22;11726;50.122;8.832;2024-02-26T02:29:07;7.00;99.90
23114;DHT22;11726;50.122;8.832;2024-02-26T02:31:35;7.00;99.90
23114;DHT22;11726;50.122;8.832;2024-02-26T02:34:02;7.00;99.90
23114;DHT22;11726;50.122;8.832;2024-02-26T02:36:30;6.90;99.90
23114;DHT22;11726;50.122;8.832;2024-02-26T02:38:57;6.90;99.90
23114;DHT22;11726;50.122;8.832;2024-02-26T02:41:23;6.90;99.90
23114;DHT22;11726;50.122;8.832;2024-02-26T02:43:50;6.90;99.90
23114;DHT22;11726;50.122;8.832;2024-02-26T02:46:17;6.90;99.90
23114;DHT22;11726;50.122;8.832;2024-02-26T02:48:44;6.80;99.90
23114;DHT22;11726;50.122;8.832;2024-02-26T02:51:11;6.80;99.90
23114;DHT22;11726;50.122;8.832;2024-02-26T02:53:38;6.90;99.90
23114;DHT22;11726;50.122;8.832;2024-02-26T02:56:05;6.90;99.90
23114;DHT22;11726;50.122;8.832;2024-02-26T02:58:31;6.90;99.90
23114;DHT22;11726;50.122;8.832;2024-02-26T03:00:58;7.00;99.90
23114;DHT22;11726;50.122;8.832;2024-02-26T03:03:27;7.00;99.90
23114;DHT22;11726;50.122;8.832;2024-02-26T03:05:55;7.00;99.90
23114;DHT22;11726;50.122;8.832;2024-02-26T03:08:22;6.90;99.90
23114;DHT22;11726;50.122;8.832;2024-02-26T03:10:48;6.90;99.90
23114;DHT22;11726;50.122;8.832;2024-02-26T03:13:15;6.90;99.90
23114;DHT22;11726;50.122;8.832;2024-02-26T03:15:42;6.90;99.90
23114;DHT22;11726;50.122;8.832;2024-02-26T03:18:09;7.00;99.90
23114;DHT22;11726;50.122;8.832;2024-02-26T03:20:35;6.90;99.90
23114;DHT22;11726;50.122;8.832;2024-02-26T03:23:03;6.90;99.90
23114;DHT22;11726;50.122;8.832;2024-02-26T03:25:30;6.90;99.90
23114;DHT22;11726;50.122;8.832;2024-02-26T03:27:57;6.90;99.90
23114;DHT22;11726;50.122;8.832;2024-02-26T03:30:23;6.90;99.90
23114;DHT22;11726;50.122;8.832;2024-02-26T03:32:50;6.90;99.90
23114;DHT22;11726;50.122;8.832;2024-02-26T03:35:17;7.00;99.90
23114;DHT22;11726;50.122;8.832;2024-02-26T03:37:46;7.00;99.90
23114;DHT22;11726;50.122;8.832;2024-02-26T03:40:13;7.00;99.90
23114;DHT22;11726;50.122;8.832;2024-02-26T03:42:41;7.00;99.90
23114;DHT22;11726;50.122;8.832;2024-02-26T03:45:08;7.00;99.90
23114;DHT22;11726;50.122;8.832;2024-02-26T03:47:37;7.00;99.90
23114;DHT22;11726;50.122;8.832;2024-02-26T03:50:06;7.00;99.90
23114;DHT22;11726;50.122;8.832;2024-02-26T03:52:33;7.00;99.90
23114;DHT22;11726;50.122;8.832;2024-02-26T03:55:00;7.00;99.90
23114;DHT22;11726;50.122;8.832;2024-02-26T03:57:27;7.00;99.90
23114;DHT22;11726;50.122;8.832;2024-02-26T03:59:53;7.00;99.90
23114;DHT22;11726;50.122;8.832;2024-02-26T04:02:20;7.00;99.90
23114;DHT22;11726;50.122;8.832;2024-02-26T04:04:47;7.00;99.90
23114;DHT22;11726;50.122;8.832;2024-02-26T04:07:14;7.00;99.90
23114;DHT22;11726;50.122;8.832;2024-02-26T04:09:41;7.00;99.90
23114;DHT22;11726;50.122;8.832;2024-02-26T04:12:08;6.90;99.90
23114;DHT22;11726;50.122;8.832;2024-02-26T04:14:35;6.90;99.90
23114;DHT22;11726;50.122;8.832;2024-02-26T04:17:02;6.90;99.90
23114;DHT22;11726;50.122;8.832;2024-02-26T04:19:29;6.90;99.90
23114;DHT22;11726;50.122;8.832;2024-02-26T04:21:56;6.90;99.90
23114;DHT22;11726;50.122;8.832;2024-02-26T04:24:23;6.70;99.90
23114;DHT22;11726;50.122;8.832;2024-02-26T04:26:49;6.70;99.90
23114;DHT22;11726;50.122;8.832;2024-02-26T04:29:16;6.80;99.90
23114;DHT22;11726;50.122;8.832;2024-02-26T04:31:43;6.80;99.90
23114;DHT22;11726;50.122;8.832;2024-02-26T04:34:10;6.90;99.90
23114;DHT22;11726;50.122;8.832;2024-02-26T04:36:40;6.90;99.90
23114;DHT22;11726;50.122;8.832;2024-02-26T04:39:07;6.90;99.90
23114;DHT22;11726;50.122;8.832;2024-02-26T04:41:34;6.90;99.90
23114;DHT22;11726;50.122;8.832;2024-02-26T04:44:01;6.80;99.90
23114;DHT22;11726;50.122;8.832;2024-02-26T04:46:28;6.90;99.90
23114;DHT22;11726;50.122;8.832;2024-02-26T04:48:54;6.90;99.90
23114;DHT22;11726;50.122;8.832;2024-02-26T04:51:23;6.90;99.90
23114;DHT22;11726;50.122;8.832;2024-02-26T04:53:50;7.00;99.90
23114;DHT22;11726;50.122;8.832;2024-02-26T04:56:17;6.90;99.90
23114;DHT22;11726;50.122;8.832;2024-02-26T04:58:44;7.00;99.90
23114;DHT22;11726;50.122;8.832;2024-02-26T05:01:11;7.00;99.90
23114;DHT22;11726;50.122;8.832;2024-02-26T05:03:38;7.00;99.90
23114;DHT22;11726;50.122;8.832;2024-02-26T05:06:05;7.00;99.90
23114;DHT22;11726;50.122;8.832;2024-02-26T05:08:32;7.00;99.90
23114;DHT22;11726;50.122;8.832;2024-02-26T05:11:00;7.00;99.90
23114;DHT22;11726;50.122;8.832;2024-02-26T05:13:27;7.00;99.90
23114;DHT22;11726;50.122;8.832;2024-02-26T05:15:54;7.00;99.90
23114;DHT22;11726;50.122;8.832;2024-02-26T05:18:21;7.10;99.90
23114;DHT22;11726;50.122;8.832;2024-02-26T05:20:48;7.00;99.90
23114;DHT22;11726;50.122;8.832;2024-02-26T05:23:15;7.00;99.90
23114;DHT22;11726;50.122;8.832;2024-02-26T05:25:41;7.00;99.90
23114;DHT22;11726;50.122;8.832;2024-02-26T05:28:08;6.90;99.90
23114;DHT22;11726;50.122;8.832;2024-02-26T05:30:35;6.90;99.90
23114;DHT22;11726;50.122;8.832;2024-02-26T05:33:02;7.00;99.90
23114;DHT22;11726;50.122;8.832;2024-02-26T05:35:28;7.00;99.90
23114;DHT22;11726;50.122;8.832;2024-02-26T05:37:55;6.90;99.90
23114;DHT22;11726;50.122;8.832;2024-02-26T05:40:22;6.90;99.90
23114;DHT22;11726;50.122;8.832;2024-02-26T05:42:48;6.90;99.90
23114;DHT22;11726;50.122;8.832;2024-02-26T05:45:15;6.90;99.90
23114;DHT22;11726;50.122;8.832;2024-02-26T05:47:42;7.00;99.90
23114;DHT22;11726;50.122;8.832;2024-02-26T05:50:10;6.90;99.90
23114;DHT22;11726;50.122;8.832;2024-02-26T05:52:37;7.00;99.90
23114;DHT22;11726;50.122;8.832;2024-02-26T05:55:07;7.00;99.90
23114;DHT22;11726;50.122;8.832;2024-02-26T05:57:36;7.00;99.90
23114;DHT22;11726;50.122;8.832;2024-02-26T06:00:03;7.00;99.90
23114;DHT22;11726;50.122;8.832;2024-02-26T06:02:32;7.00;99.90
23114;DHT22;11726;50.122;8.832;2024-02-26T06:04:59;7.00;99.90
23114;DHT22;11726;50.122;8.832;2024-02-26T06:07:25;7.00;99.90
23114;DHT22;11726;50.122;8.832;2024-02-26T06:09:52;7.00;99.90
23114;DHT22;11726;50.122;8.832;2024-02-26T06:12:19;6.90;99.90
23114;DHT22;11726;50.122;8.832;2024-02-26T06:14:45;6.90;99.90
23114;DHT22;11726;50.122;8.832;2024-02-26T06:17:12;6.90;99.90
23114;DHT22;11726;50.122;8.832;2024-02-26T06:19:39;7.00;99.90
23114;DHT22;11726;50.122;8.832;2024-02-26T06:22:06;6.90;99.90
23114;DHT22;11726;50.122;8.832;2024-02-26T06:24:32;6.80;99.90
23114;DHT22;11726;50.122;8.832;2024-02-26T06:26:59;6.80;99.90
23114;DHT22;11726;50.122;8.832;2024-02-26T06:29:26;6.80;99.90
23114;DHT22;11726;50.122;8.832;2024-02-26T06:31:53;6.80;99.90
23114;DHT22;11726;50.122;8.832;2024-02-26T06:34:19;6.80;99.90
23114;DHT22;11726;50.122;8.832;2024-02-26T06:36:46;6.80;99.90
23114;DHT22;11726;50.122;8.832;2024-02-26T06:39:13;6.80;99.90
23114;DHT22;11726;50.122;8.832;2024-02-26T06:41:41;6.80;99.90
23114;DHT22;11726;50.122;8.832;2024-02-26T06:44:08;6.70;99.90
23114;DHT22;11726;50.122;8.832;2024-02-26T06:46:35;6.70;99.90
23114;DHT22;11726;50.122;8.832;2024-02-26T06:49:01;6.70;99.90
23114;DHT22;11726;50.122;8.832;2024-02-26T06:51:28;6.60;99.90
23114;DHT22;11726;50.122;8.832;2024-02-26T06:53:55;6.60;99.90
23114;DHT22;11726;50.122;8.832;2024-02-26T06:56:22;6.60;99.90
23114;DHT22;11726;50.122;8.832;2024-02-26T06:58:48;6.60;99.90
23114;DHT22;11726;50.122;8.832;2024-02-26T07:01:18;6.60;99.90
23114;DHT22;11726;50.122;8.832;2024-02-26T07:03:45;6.60;99.90
23114;DHT22;11726;50.122;8.832;2024-02-26T07:06:12;6.60;99.90
23114;DHT22;11726;50.122;8.832;2024-02-26T07:08:40;6.60;99.90
23114;DHT22;11726;50.122;8.832;2024-02-26T07:11:07;6.60;99.90
23114;DHT22;11726;50.122;8.832;2024-02-26T07:13:35;6.60;99.90
23114;DHT22;11726;50.122;8.832;2024-02-26T07:16:02;6.60;99.90
23114;DHT22;11726;50.122;8.832;2024-02-26T07:18:29;6.60;99.90
23114;DHT22;11726;50.122;8.832;2024-02-26T07:20:56;6.50;99.90
23114;DHT22;11726;50.122;8.832;2024-02-26T07:23:26;6.50;99.90
23114;DHT22;11726;50.122;8.832;2024-02-26T07:25:52;6.50;99.90
23114;DHT22;11726;50.122;8.832;2024-02-26T07:28:19;6.50;99.90
23114;DHT22;11726;50.122;8.832;2024-02-26T07:30:46;6.60;99.90
23114;DHT22;11726;50.122;8.832;2024-02-26T07:33:13;6.50;99.90
23114;DHT22;11726;50.122;8.832;2024-02-26T07:35:40;6.50;99.90
23114;DHT22;11726;50.122;8.832;2024-02-26T07:38:07;6.60;99.90
23114;DHT22;11726;50.122;8.832;2024-02-26T07:40:45;6.60;99.90
23114;DHT22;11726;50.122;8.832;2024-02-26T07:43:24;6.60;99.90
23114;DHT22;11726;50.122;8.832;2024-02-26T07:45:51;6.60;99.90
23114;DHT22;11726;50.122;8.832;2024-02-26T07:48:19;6.60;99.90
23114;DHT22;11726;50.122;8.832;2024-02-26T07:50:45;6.60;99.90
23114;DHT22;11726;50.122;8.832;2024-02-26T07:53:13;6.60;99.90
23114;DHT22;11726;50.122;8.832;2024-02-26T07:55:40;6.60;99.90
23114;DHT22;11726;50.122;8.832;2024-02-26T07:58:06;6.70;99.90
23114;DHT22;11726;50.122;8.832;2024-02-26T08:00:35;6.70;99.90
23114;DHT22;11726;50.122;8.832;2024-02-26T08:03:02;6.70;99.90
23114;DHT22;11726;50.122;8.832;2024-02-26T08:05:29;6.70;99.90
23114;DHT22;11726;50.122;8.832;2024-02-26T08:07:56;6.60;99.90
23114;DHT22;11726;50.122;8.832;2024-02-26T08:10:24;6.70;99.90
23114;DHT22;11726;50.122;8.832;2024-02-26T08:12:51;6.70;99.90
23114;DHT22;11726;50.122;8.832;2024-02-26T08:15:18;6.60;99.90
23114;DHT22;11726;50.122;8.832;2024-02-26T08:17:45;6.70;99.90
23114;DHT22;11726;50.122;8.832;2024-02-26T08:20:14;6.80;99.90
23114;DHT22;11726;50.122;8.832;2024-02-26T08:22:41;6.80;99.90
23114;DHT22;11726;50.122;8.832;2024-02-26T08:25:08;6.80;99.90
23114;DHT22;11726;50.122;8.832;2024-02-26T08:27:35;6.80;99.90
23114;DHT22;11726;50.122;8.832;2024-02-26T08:30:03;6.80;99.90
23114;DHT22;11726;50.122;8.832;2024-02-26T08:32:30;6.80;99.90
23114;DHT22;11726;50.122;8.832;2024-02-26T08:34:56;6.80;99.90
23114;DHT22;11726;50.122;8.832;2024-02-26T08:37:23;6.80;99.90
23114;DHT22;11726;50.122;8.832;2024-02-26T08:39:50;6.80;99.90
23114;DHT22;11726;50.122;8.832;2024-02-26T08:42:16;6.80;99.90
23114;DHT22;11726;50.122;8.832;2024-02-26T08:44:43;6.80;99.90
23114;DHT22;11726;50.122;8.832;2024-02-26T08:47:10;7.00;99.90
23114;DHT22;11726;50.122;8.832;2024-02-26T08:49:36;7.00;99.90
23114;DHT22;11726;50.122;8.832;2024-02-26T08:52:04;7.00;99.90
23114;DHT22;11726;50.122;8.832;2024-02-26T08:54:31;7.00;99.90
23114;DHT22;11726;50.122;8.832;2024-02-26T08:56:58;7.10;99.90
23114;DHT22;11726;50.122;8.832;2024-02-26T08:59:25;7.00;99.90
23114;DHT22;11726;50.122;8.832;2024-02-26T09:01:52;7.00;99.90
23114;DHT22;11726;50.122;8.832;2024-02-26T09:04:19;7.00;99.90
23114;DHT22;11726;50.122;8.832;2024-02-26T09:06:46;7.10;99.90
23114;DHT22;11726;50.122;8.832;2024-02-26T09:09:13;7.00;99.90
23114;DHT22;11726;50.122;8.832;2024-02-26T09:11:39;7.10;99.90
23114;DHT22;11726;50.122;8.832;2024-02-26T09:14:06;7.10;99.90
23114;DHT22;11726;50.122;8.832;2024-02-26T09:16:33;7.10;99.90
23114;DHT22;11726;50.122;8.832;2024-02-26T09:18:59;7.20;99.90
23114;DHT22;11726;50.122;8.832;2024-02-26T09:21:26;7.10;99.90
23114;DHT22;11726;50.122;8.832;2024-02-26T09:23:53;7.10;99.90
23114;DHT22;11726;50.122;8.832;2024-02-26T09:26:20;7.10;99.90
23114;DHT22;11726;50.122;8.832;2024-02-26T09:28:46;7.10;99.90
23114;DHT22;11726;50.122;8.832;2024-02-26T09:31:14;7.20;99.90
23114;DHT22;11726;50.122;8.832;2024-02-26T09:33:42;7.30;99.90
23114;DHT22;11726;50.122;8.832;2024-02-26T09:36:09;7.30;99.90
23114;DHT22;11726;50.122;8.832;2024-02-26T09:38:37;7.20;99.90
23114;DHT22;11726;50.122;8.832;2024-02-26T09:41:21;7.30;99.90
23114;DHT22;11726;50.122;8.832;2024-02-26T09:43:48;7.30;99.90
23114;DHT22;11726;50.122;8.832;2024-02-26T09:46:17;7.30;99.90
23114;DHT22;11726;50.122;8.832;2024-02-26T09:48:47;7.40;99.90
23114;DHT22;11726;50.122;8.832;2024-02-26T09:51:15;7.40;99.90
23114;DHT22;11726;50.122;8.832;2024-02-26T09:53:43;7.50;99.90
23114;DHT22;11726;50.122;8.832;2024-02-26T09:56:12;7.50;99.90
23114;DHT22;11726;50.122;8.832;2024-02-26T09:58:41;7.50;99.90
23114;DHT22;11726;50.122;8.832;2024-02-26T10:01:11;7.60;99.90
23114;DHT22;11726;50.122;8.832;2024-02-26T10:03:41;7.60;99.90
23114;DHT22;11726;50.122;8.832;2024-02-26T10:06:08;7.60;99.90
23114;DHT22;11726;50.122;8.832;2024-02-26T10:08:36;7.60;99.90
23114;DHT22;11726;50.122;8.832;2024-02-26T10:11:07;7.60;99.90
23114;DHT22;11726;50.122;8.832;2024-02-26T10:13:37;7.60;99.90
23114;DHT22;11726;50.122;8.832;2024-02-26T10:16:04;7.70;99.90
23114;DHT22;11726;50.122;8.832;2024-02-26T10:19:05;7.70;99.90
23114;DHT22;11726;50.122;8.832;2024-02-26T10:21:32;7.80;99.90
23114;DHT22;11726;50.122;8.832;2024-02-26T10:23:58;7.80;99.90
23114;DHT22;11726;50.122;8.832;2024-02-26T10:26:25;7.80;99.90
23114;DHT22;11726;50.122;8.832;2024-02-26T10:28:52;7.90;99.90
23114;DHT22;11726;50.122;8.832;2024-02-26T10:31:21;8.10;99.90
23114;DHT22;11726;50.122;8.832;2024-02-26T10:33:49;8.10;99.90
23114;DHT22;11726;50.122;8.832;2024-02-26T10:36:16;8.10;99.90
23114;DHT22;11726;50.122;8.832;2024-02-26T10:38:43;8.10;99.90
23114;DHT22;11726;50.122;8.832;2024-02-26T10:41:14;8.10;99.90
23114;DHT22;11726;50.122;8.832;2024-02-26T10:43:42;8.20;99.90
23114;DHT22;11726;50.122;8.832;2024-02-26T10:46:10;8.10;99.90
23114;DHT22;11726;50.122;8.832;2024-02-26T10:48:37;8.10;99.90
23114;DHT22;11726;50.122;8.832;2024-02-26T10:51:04;8.20;99.90
23114;DHT22;11726;50.122;8.832;2024-02-26T10:53:31;8.30;99.90
23114;DHT22;11726;50.122;8.832;2024-02-26T10:56:04;8.40;99.90
23114;DHT22;11726;50.122;8.832;2024-02-26T10:58:32;8.50;99.90
23114;DHT22;11726;50.122;8.832;2024-02-26T11:00:59;8.70;99.90
23114;DHT22;11726;50.122;8.832;2024-02-26T11:03:27;8.90;99.90
23114;DHT22;11726;50.122;8.832;2024-02-26T11:05:56;9.00;99.90
23114;DHT22;11726;50.122;8.832;2024-02-26T11:08:24;9.20;99.90
23114;DHT22;11726;50.122;8.832;2024-02-26T11:10:53;9.00;99.90
23114;DHT22;11726;50.122;8.832;2024-02-26T11:13:22;9.10;99.90
23114;DHT22;11726;50.122;8.832;2024-02-26T11:15:50;9.30;99.90
23114;DHT22;11726;50.122;8.832;2024-02-26T11:18:19;9.20;99.90
23114;DHT22;11726;50.122;8.832;2024-02-26T11:20:46;9.10;99.90
23114;DHT22;11726;50.122;8.832;2024-02-26T11:23:14;9.30;99.90
23114;DHT22;11726;50.122;8.832;2024-02-26T11:25:42;9.40;99.90
23114;DHT22;11726;50.122;8.832;2024-02-26T11:28:12;9.40;99.90
23114;DHT22;11726;50.122;8.832;2024-02-26T11:30:44;9.40;99.90
23114;DHT22;11726;50.122;8.832;2024-02-26T11:33:12;9.50;99.90
23114;DHT22;11726;50.122;8.832;2024-02-26T11:35:40;9.40;99.90
23114;DHT22;11726;50.122;8.832;2024-02-26T11:38:07;9.50;99.90
23114;DHT22;11726;50.122;8.832;2024-02-26T11:40:38;9.40;99.90
23114;DHT22;11726;50.122;8.832;2024-02-26T11:43:08;9.40;99.90
23114;DHT22;11726;50.122;8.832;2024-02-26T11:48:16;9.50;99.90
23114;DHT22;11726;50.122;8.832;2024-02-26T11:50:53;9.60;99.90
23114;DHT22;11726;50.122;8.832;2024-02-26T11:53:31;9.80;99.90
23114;DHT22;11726;50.122;8.832;2024-02-26T11:56:20;9.90;99.90
23114;DHT22;11726;50.122;8.832;2024-02-26T11:59:00;10.10;99.90
23114;DHT22;11726;50.122;8.832;2024-02-26T12:01:47;10.10;99.90
23114;DHT22;11726;50.122;8.832;2024-02-26T12:04:21;10.00;99.90
23114;DHT22;11726;50.122;8.832;2024-02-26T12:06:52;9.90;99.90
23114;DHT22;11726;50.122;8.832;2024-02-26T12:09:38;9.90;99.90
23114;DHT22;11726;50.122;8.832;2024-02-26T12:12:09;10.00;99.90
23114;DHT22;11726;50.122;8.832;2024-02-26T12:14:53;10.00;99.90
23114;DHT22;11726;50.122;8.832;2024-02-26T12:17:23;10.20;99.90
23114;DHT22;11726;50.122;8.832;2024-02-26T12:19:51;10.20;99.90
23114;DHT22;11726;50.122;8.832;2024-02-26T12:22:23;10.30;99.90
23114;DHT22;11726;50.122;8.832;2024-02-26T12:25:00;10.30;99.90
23114;DHT22;11726;50.122;8.832;2024-02-26T12:27:29;10.60;99.90
23114;DHT22;11726;50.122;8.832;2024-02-26T12:29:56;10.60;99.90
23114;DHT22;11726;50.122;8.832;2024-02-26T12:32:23;10.50;99.90
23114;DHT22;11726;50.122;8.832;2024-02-26T12:34:50;10.50;99.90
23114;DHT22;11726;50.122;8.832;2024-02-26T12:37:17;10.90;99.90
23114;DHT22;11726;50.122;8.832;2024-02-26T12:39:44;11.00;99.90
23114;DHT22;11726;50.122;8.832;2024-02-26T12:42:12;10.90;99.90
23114;DHT22;11726;50.122;8.832;2024-02-26T12:44:39;11.00;99.90
23114;DHT22;11726;50.122;8.832;2024-02-26T12:47:05;10.90;99.90
23114;DHT22;11726;50.122;8.832;2024-02-26T12:49:32;10.60;99.90
23114;DHT22;11726;50.122;8.832;2024-02-26T12:51:59;10.50;99.90
23114;DHT22;11726;50.122;8.832;2024-02-26T12:54:30;10.30;99.90
23114;DHT22;11726;50.122;8.832;2024-02-26T12:57:00;10.20;99.90
23114;DHT22;11726;50.122;8.832;2024-02-26T12:59:29;10.40;99.90
23114;DHT22;11726;50.122;8.832;2024-02-26T13:01:56;10.40;99.90
23114;DHT22;11726;50.122;8.832;2024-02-26T13:04:24;10.60;99.90
23114;DHT22;11726;50.122;8.832;2024-02-26T13:06:52;10.70;99.90
23114;DHT22;11726;50.122;8.832;2024-02-26T13:09:19;10.70;99.90
23114;DHT22;11726;50.122;8.832;2024-02-26T13:11:45;10.80;99.90
23114;DHT22;11726;50.122;8.832;2024-02-26T13:14:20;10.90;99.90
23114;DHT22;11726;50.122;8.832;2024-02-26T13:17:00;11.00;99.90
23114;DHT22;11726;50.122;8.832;2024-02-26T13:19:27;10.80;99.90
23114;DHT22;11726;50.122;8.832;2024-02-26T13:21:54;10.90;99.90
23114;DHT22;11726;50.122;8.832;2024-02-26T13:24:22;10.90;99.90
23114;DHT22;11726;50.122;8.832;2024-02-26T13:26:55;10.90;99.90
23114;DHT22;11726;50.122;8.832;2024-02-26T13:29:22;10.90;99.90
23114;DHT22;11726;50.122;8.832;2024-02-26T13:31:54;11.00;99.90
23114;DHT22;11726;50.122;8.832;2024-02-26T13:34:28;11.20;99.90
23114;DHT22;11726;50.122;8.832;2024-02-26T13:36:56;11.30;99.90
23114;DHT22;11726;50.122;8.832;2024-02-26T13:39:24;11.60;99.90
23114;DHT22;11726;50.122;8.832;2024-02-26T13:41:52;12.00;99.90
23114;DHT22;11726;50.122;8.832;2024-02-26T13:44:20;12.20;99.90
23114;DHT22;11726;50.122;8.832;2024-02-26T13:46:47;12.00;99.90
23114;DHT22;11726;50.122;8.832;2024-02-26T13:49:14;11.90;99.90
23114;DHT22;11726;50.122;8.832;2024-02-26T13:51:41;11.80;99.90
23114;DHT22;11726;50.122;8.832;2024-02-26T13:54:08;11.70;99.90
23114;DHT22;11726;50.122;8.832;2024-02-26T13:56:36;11.50;99.90
23114;DHT22;11726;50.122;8.832;2024-02-26T13:59:04;11.50;99.90
23114;DHT22;11726;50.122;8.832;2024-02-26T14:01:31;11.50;99.90
23114;DHT22;11726;50.122;8.832;2024-02-26T14:04:00;11.40;99.90
23114;DHT22;11726;50.122;8.832;2024-02-26T14:06:29;11.30;99.90
23114;DHT22;11726;50.122;8.832;2024-02-26T14:08:57;11.30;99.90
23114;DHT22;11726;50.122;8.832;2024-02-26T14:11:25;11.30;99.90
23114;DHT22;11726;50.122;8.832;2024-02-26T14:13:52;11.40;99.90
23114;DHT22;11726;50.122;8.832;2024-02-26T14:16:18;11.70;99.90
23114;DHT22;11726;50.122;8.832;2024-02-26T14:18:46;11.70;99.90
23114;DHT22;11726;50.122;8.832;2024-02-26T14:21:13;11.70;99.90
23114;DHT22;11726;50.122;8.832;2024-02-26T14:23:40;11.60;99.90
23114;DHT22;11726;50.122;8.832;2024-02-26T14:26:09;11.70;99.90
23114;DHT22;11726;50.122;8.832;2024-02-26T14:28:36;11.60;99.90
23114;DHT22;11726;50.122;8.832;2024-02-26T14:31:03;11.70;99.90
23114;DHT22;11726;50.122;8.832;2024-02-26T14:33:32;11.90;99.90
23114;DHT22;11726;50.122;8.832;2024-02-26T14:35:59;12.00;99.90
23114;DHT22;11726;50.122;8.832;2024-02-26T14:38:26;12.20;99.90
23114;DHT22;11726;50.122;8.832;2024-02-26T14:40:52;12.20;99.90
23114;DHT22;11726;50.122;8.832;2024-02-26T14:43:19;12.40;99.90
23114;DHT22;11726;50.122;8.832;2024-02-26T14:45:45;12.40;99.90
23114;DHT22;11726;50.122;8.832;2024-02-26T14:48:12;12.50;99.90
23114;DHT22;11726;50.122;8.832;2024-02-26T14:50:39;12.60;99.90
23114;DHT22;11726;50.122;8.832;2024-02-26T14:53:06;12.90;99.90
23114;DHT22;11726;50.122;8.832;2024-02-26T14:55:32;13.10;99.90
23114;DHT22;11726;50.122;8.832;2024-02-26T14:58:00;13.50;99.90
23114;DHT22;11726;50.122;8.832;2024-02-26T15:00:27;13.50;99.90
23114;DHT22;11726;50.122;8.832;2024-02-26T15:02:54;13.60;99.90
23114;DHT22;11726;50.122;8.832;2024-02-26T15:05:21;13.70;99.90
23114;DHT22;11726;50.122;8.832;2024-02-26T15:07:48;13.60;99.90
23114;DHT22;11726;50.122;8.832;2024-02-26T15:10:15;13.10;99.90
23114;DHT22;11726;50.122;8.832;2024-02-26T15:12:43;12.90;99.90
23114;DHT22;11726;50.122;8.832;2024-02-26T15:15:10;12.50;99.90
23114;DHT22;11726;50.122;8.832;2024-02-26T15:17:37;12.50;99.90
23114;DHT22;11726;50.122;8.832;2024-02-26T15:20:04;12.40;99.90
23114;DHT22;11726;50.122;8.832;2024-02-26T15:22:34;12.30;99.90
23114;DHT22;11726;50.122;8.832;2024-02-26T15:25:00;12.20;99.90
23114;DHT22;11726;50.122;8.832;2024-02-26T15:27:27;12.20;99.90
23114;DHT22;11726;50.122;8.832;2024-02-26T15:29:54;12.10;99.90
23114;DHT22;11726;50.122;8.832;2024-02-26T15:32:25;12.00;99.90
23114;DHT22;11726;50.122;8.832;2024-02-26T15:34:56;12.00;99.90
23114;DHT22;11726;50.122;8.832;2024-02-26T15:37:24;11.80;99.90
23114;DHT22;11726;50.122;8.832;2024-02-26T15:39:50;11.70;99.90
23114;DHT22;11726;50.122;8.832;2024-02-26T15:42:17;11.60;99.90
23114;DHT22;11726;50.122;8.832;2024-02-26T15:44:44;11.60;99.90
23114;DHT22;11726;50.122;8.832;2024-02-26T15:47:10;11.50;99.90
23114;DHT22;11726;50.122;8.832;2024-02-26T15:49:37;11.60;99.90